createdAt,value
2018-07-16T08:38:30.534Z,97718.00
2018-07-16T08:39:33.378Z,97722.53
2018-07-16T08:40:35.906Z,97721.56
2018-07-16T08:41:38.430Z,97717.48
2018-07-16T08:42:41.016Z,97721.16
2018-07-16T08:43:43.950Z,97649.30
2018-07-16T08:44:46.546Z,97722.63
2018-07-16T08:45:49.128Z,97721.73
2018-07-16T08:46:51.787Z,97718.94
2018-07-16T08:47:56.311Z,97715.70
2018-07-16T08:48:59.639Z,97716.18
2018-07-16T08:50:02.648Z,97719.71
2018-07-16T08:51:05.138Z,97714.98
2018-07-16T08:52:07.666Z,97715.70
2018-07-16T08:53:10.198Z,97713.66
2018-07-16T08:54:13.201Z,97715.05
2018-07-16T08:55:15.739Z,97717.23
2018-07-16T08:56:18.558Z,97717.50
2018-07-16T08:57:21.044Z,97714.23
2018-07-16T08:59:31.050Z,97705.90
2018-07-16T09:00:33.610Z,97710.83
2018-07-16T09:01:37.105Z,97704.53
2018-07-16T09:02:40.229Z,97706.46
2018-07-16T09:03:47.508Z,97710.83
2018-07-16T09:04:50.037Z,97713.76
2018-07-16T09:05:56.405Z,97707.47
2018-07-16T09:06:59.646Z,97711.09
2018-07-16T09:08:02.204Z,97716.34
2018-07-16T10:03:24.416Z,97696.56
2018-07-16T10:04:27.479Z,97695.38
2018-07-16T10:05:30.260Z,97692.22
2018-07-16T10:06:32.997Z,97692.33
2018-07-16T10:07:35.623Z,97685.61
2018-07-16T10:08:38.731Z,97686.88
2018-07-16T10:09:41.589Z,97682.91
2018-07-16T10:10:44.667Z,97680.20
2018-07-16T10:14:02.716Z,97683.55
2018-07-16T10:19:09.291Z,97680.15
2018-07-16T10:20:12.642Z,97674.75
2018-07-16T10:21:15.313Z,97680.96
2018-07-16T10:22:18.438Z,97675.49
2018-07-16T10:23:20.940Z,97676.02
2018-07-16T10:24:23.488Z,97671.91
2018-07-16T10:25:26.312Z,97664.25
2018-07-16T10:26:28.808Z,97665.37
2018-07-16T10:27:31.319Z,97662.48
2018-07-16T20:08:19.295Z,97650.16
2018-07-16T20:09:26.218Z,97646.20
2018-07-16T20:10:28.827Z,97653.66
2018-07-16T20:11:31.351Z,97645.95
2018-07-16T20:12:34.539Z,97648.42
2018-07-16T20:13:39.011Z,97651.83
2018-07-16T20:14:42.145Z,97649.89
2018-07-16T20:15:44.895Z,97649.41
2018-07-16T20:16:47.388Z,97645.67
2018-07-16T20:17:50.915Z,97644.11
2018-07-16T20:18:53.501Z,97647.55
2018-07-16T20:19:57.379Z,97649.16
2018-07-16T20:21:00.039Z,97645.97
2018-07-16T20:22:02.598Z,97648.81
2018-07-16T20:23:05.554Z,97646.87
2018-07-16T20:24:08.081Z,97646.83
2018-07-16T20:25:10.594Z,97619.20
2018-07-16T20:26:13.453Z,97651.61
2018-07-16T20:27:16.104Z,97650.48
2018-07-16T20:28:18.619Z,97648.03
2018-07-16T20:29:23.585Z,97645.58
2018-07-16T20:30:26.191Z,97653.33
2018-07-16T20:31:28.791Z,97629.45
2018-07-16T20:32:31.888Z,97647.13
2018-07-16T20:33:35.233Z,97651.02
2018-07-16T20:34:37.813Z,97654.67
2018-07-16T20:35:40.320Z,97648.59
2018-07-16T20:36:42.846Z,97646.91
2018-07-16T20:37:46.638Z,97657.60
2018-07-16T20:38:49.486Z,97653.47
2018-07-16T20:39:52.761Z,97652.39
2018-07-16T20:40:55.283Z,97648.98
2018-07-16T20:41:58.804Z,97652.61
2018-07-16T20:43:01.333Z,97646.31
2018-07-16T20:44:03.862Z,97649.62
2018-07-16T20:45:06.710Z,97647.81
2018-07-16T20:46:09.244Z,97645.62
2018-07-16T20:47:12.734Z,97649.98
2018-07-16T20:48:15.266Z,97648.08
2018-07-16T20:49:18.735Z,97652.56
2018-07-16T20:50:21.243Z,97653.52
2018-07-16T20:51:24.066Z,97656.09
2018-07-16T20:52:26.614Z,97657.78
2018-07-16T20:53:29.134Z,97661.44
2018-07-16T20:54:32.193Z,97654.28
2018-07-16T20:55:34.717Z,97653.30
2018-07-16T20:56:37.592Z,97652.44
2018-07-16T20:57:40.411Z,97652.44
2018-07-16T20:58:43.023Z,97652.95
2018-07-16T20:59:45.556Z,97652.56
2018-07-16T21:00:48.056Z,97654.37
2018-07-16T21:01:51.127Z,97657.43
2018-07-16T21:02:53.646Z,97654.84
2018-07-16T21:03:58.821Z,97661.44
2018-07-16T21:05:01.847Z,97660.58
2018-07-16T21:06:04.397Z,97658.38
2018-07-16T21:07:09.356Z,97662.87
2018-07-16T21:08:11.863Z,97664.59
2018-07-16T21:09:14.947Z,97665.06
2018-07-16T21:10:17.943Z,97670.89
2018-07-16T21:11:20.992Z,97666.88
2018-07-16T21:12:24.514Z,97667.73
2018-07-16T21:13:29.762Z,97673.08
2018-07-16T21:15:42.107Z,97674.80
2018-07-16T21:16:46.685Z,97671.74
2018-07-16T21:17:49.265Z,97679.38
2018-07-16T21:18:53.446Z,97678.05
2018-07-16T21:19:57.564Z,97680.36
2018-07-16T21:21:01.534Z,97679.50
2018-07-16T21:22:06.518Z,97666.69
2018-07-16T21:23:09.464Z,97684.37
2018-07-16T21:24:13.060Z,97685.71
2018-07-16T21:25:16.178Z,97681.70
2018-07-16T21:26:19.382Z,97680.36
2018-07-16T21:27:21.971Z,97678.64
2018-07-16T21:28:24.771Z,97680.45
2018-07-16T21:29:29.550Z,97677.78
2018-07-16T21:30:32.074Z,97674.75
2018-07-16T21:31:35.602Z,97675.62
2018-07-16T21:32:38.976Z,97677.43
2018-07-16T21:33:41.775Z,97678.29
2018-07-16T21:34:44.283Z,97678.29
2018-07-16T21:35:47.099Z,97680.10
2018-07-16T21:36:49.674Z,97680.10
2018-07-16T21:37:52.275Z,97682.39
2018-07-16T21:38:54.786Z,97685.45
2018-07-16T21:39:57.557Z,97684.20
2018-07-16T21:41:01.254Z,97686.40
2018-07-16T21:42:03.781Z,97682.86
2018-07-16T21:43:07.030Z,97680.58
2018-07-16T21:44:10.556Z,97684.67
2018-07-16T21:45:13.061Z,97687.86
2018-07-16T21:46:16.200Z,97689.67
2018-07-16T21:47:18.698Z,97687.00
2018-07-16T21:48:21.659Z,97682.60
2018-07-16T21:49:25.583Z,97683.47
2018-07-16T21:50:28.956Z,97684.80
2018-07-16T21:51:31.454Z,97692.34
2018-07-16T21:52:33.986Z,97692.34
2018-07-16T21:53:36.774Z,97686.14
2018-07-16T21:54:39.669Z,97691.48
2018-07-16T21:55:42.374Z,97691.09
2018-07-16T21:56:45.075Z,97691.01
2018-07-16T21:57:48.239Z,97687.00
2018-07-16T21:58:51.268Z,97692.69
2018-07-16T21:59:53.789Z,97690.14
2018-07-16T22:00:57.371Z,97688.81
2018-07-16T22:01:59.873Z,97684.41
2018-07-16T22:03:02.401Z,97670.74
2018-07-16T22:04:06.477Z,97685.75
2018-07-16T22:05:09.189Z,97684.41
2018-07-16T22:06:12.270Z,97683.59
2018-07-16T22:07:15.253Z,97680.41
2018-07-16T22:08:18.383Z,97682.25
2018-07-16T22:09:24.439Z,97683.20
2018-07-16T22:10:28.622Z,97683.29
2018-07-16T22:11:31.313Z,97680.05
2018-07-16T22:12:34.711Z,97652.68
2018-07-16T22:13:37.881Z,97679.20
2018-07-16T22:15:48.477Z,97680.91
2018-07-16T22:16:53.222Z,97677.26
2018-07-16T22:17:57.830Z,97653.66
2018-07-16T22:19:00.480Z,97680.79
2018-07-16T22:20:05.803Z,97678.72
2018-07-16T22:21:08.304Z,97680.41
2018-07-16T22:23:29.676Z,97687.59
2018-07-16T22:24:32.204Z,97679.67
2018-07-16T22:25:35.307Z,97681.95
2018-07-16T22:26:39.751Z,97682.55
2018-07-16T22:27:43.280Z,97651.80
2018-07-16T22:28:46.396Z,97684.27
2018-07-16T22:29:49.444Z,97689.23
2018-07-16T22:30:53.563Z,97684.75
2018-07-16T22:31:58.843Z,97687.90
2018-07-16T22:33:01.627Z,97683.03
2018-07-16T22:34:05.866Z,97682.94
2018-07-16T22:35:08.548Z,97687.52
2018-07-16T22:36:11.077Z,97689.83
2018-07-16T22:37:14.231Z,97687.04
2018-07-16T22:38:17.529Z,97686.17
2018-07-16T22:39:21.348Z,97686.69
2018-07-16T22:40:24.467Z,97684.48
2018-07-16T22:41:27.590Z,97690.31
2018-07-16T22:42:31.329Z,97688.02
2018-07-16T22:43:33.846Z,97692.98
2018-07-16T22:45:44.736Z,97694.31
2018-07-16T22:46:47.259Z,97696.12
2018-07-16T22:47:52.820Z,97696.60
2018-07-16T22:48:56.252Z,97697.46
2018-07-16T22:49:59.366Z,97689.45
2018-07-16T22:51:01.862Z,97695.17
2018-07-16T22:52:06.229Z,97690.78
2018-07-16T22:53:08.743Z,97691.38
2018-07-16T22:54:11.271Z,97694.05
2018-07-16T22:55:13.825Z,97688.23
2018-07-16T22:56:16.324Z,97689.66
2018-07-16T22:57:19.446Z,97692.33
2018-07-16T22:58:23.200Z,97696.34
2018-07-16T22:59:25.695Z,97688.32
2018-07-16T23:00:28.843Z,97691.00
2018-07-16T23:01:31.352Z,97695.00
2018-07-16T23:02:33.856Z,97693.31
2018-07-16T23:03:36.385Z,97691.47
2018-07-16T23:04:39.189Z,97690.64
2018-07-16T23:05:44.652Z,97692.45
2018-07-16T23:06:47.156Z,97690.26
2018-07-16T23:07:49.664Z,97695.59
2018-07-16T23:08:52.196Z,97693.88
2018-07-16T23:09:54.711Z,97693.53
2018-07-16T23:10:57.534Z,97689.52
2018-07-16T23:12:00.044Z,97690.47
2018-07-16T23:13:02.566Z,97691.92
2018-07-16T23:14:05.051Z,97696.77
2018-07-16T23:15:08.095Z,97694.47
2018-07-16T23:16:11.149Z,97700.77
2018-07-16T23:17:14.538Z,97699.94
2018-07-16T23:18:17.074Z,97697.27
2018-07-16T23:19:19.562Z,97697.15
2018-07-16T23:20:22.098Z,97697.15
2018-07-16T23:21:24.595Z,97693.27
2018-07-16T23:22:27.907Z,97666.66
2018-07-16T23:23:30.697Z,97701.63
2018-07-16T23:24:33.224Z,97703.83
2018-07-16T23:25:35.767Z,97699.82
2018-07-16T23:26:38.282Z,97698.61
2018-07-16T23:27:40.789Z,97698.48
2018-07-16T23:28:43.332Z,97697.74
2018-07-16T23:29:46.330Z,97699.08
2018-07-16T23:30:49.491Z,97695.07
2018-07-16T23:31:51.982Z,97692.75
2018-07-16T23:32:54.512Z,97689.94
2018-07-16T23:33:57.019Z,97692.49
2018-07-16T23:34:59.537Z,97696.14
2018-07-16T23:36:02.478Z,97691.16
2018-07-16T23:37:05.465Z,97691.28
2018-07-16T23:38:08.019Z,97694.33
2018-07-16T23:39:11.623Z,97693.83
2018-07-16T23:40:15.257Z,97694.81
2018-07-16T23:41:17.779Z,97692.02
2018-07-16T23:42:21.356Z,97696.50
2018-07-16T23:43:23.846Z,97694.21
2018-07-16T23:44:26.358Z,97698.34
2018-07-16T23:45:29.394Z,97696.88
2018-07-16T23:46:31.987Z,97695.81
2018-07-16T23:47:34.507Z,97699.73
2018-07-16T23:48:37.309Z,97703.27
2018-07-16T23:49:39.927Z,97706.70
2018-07-16T23:50:42.423Z,97703.66
2018-07-16T23:51:45.008Z,97712.41
2018-07-16T23:52:47.631Z,97710.53
2018-07-16T23:53:50.318Z,97707.82
2018-07-16T23:54:56.250Z,97706.41
2018-07-16T23:55:58.862Z,97710.76
2018-07-16T23:57:01.758Z,97712.72
2018-07-16T23:58:05.465Z,97708.09
2018-07-16T23:59:09.254Z,97710.29
